Time;durP1;ratioP1;P1;durP2;ratioP2;P2;SDS_P1;SDS_P2;PMS_P1;PMS_P2;Temp;Humidity;BMP_temperature;BMP_pressure;BME280_temperature;BME280_humidity;BME280_pressure;Samples;Min_cycle;Max_cycle;Signal;HPM_P1;HPM_P2
2023/11/22 00:01:28;;;;;;;24.73;15.53;;;6.10;99.90;;;;;;4866125;29;20460;-84
2023/11/22 00:03:54;;;;;;;26.17;16.93;;;6.10;99.90;;;;;;4866349;29;21468;-84
2023/11/22 00:06:23;;;;;;;24.37;15.23;;;6.10;99.90;;;;;;4865103;29;20101;-84
2023/11/22 00:08:48;;;;;;;22.60;15.60;;;6.10;99.90;;;;;;4866701;29;20036;-84
2023/11/22 00:11:15;;;;;;;24.37;16.77;;;6.10;99.90;;;;;;4865829;29;20616;-84
2023/11/22 00:13:41;;;;;;;30.07;15.70;;;6.10;99.90;;;;;;4866125;29;20029;-84
2023/11/22 00:16:08;;;;;;;25.37;15.77;;;6.10;99.90;;;;;;4865878;29;20053;-84
2023/11/22 00:18:37;;;;;;;28.87;16.50;;;6.10;99.90;;;;;;4867073;29;20032;-84
2023/11/22 00:21:03;;;;;;;26.13;16.30;;;6.10;99.90;;;;;;4866045;29;20044;-84
2023/11/22 00:23:29;;;;;;;28.33;17.27;;;6.10;99.90;;;;;;4866449;29;20053;-84
2023/11/22 00:25:56;;;;;;;28.83;17.37;;;6.10;99.90;;;;;;4864400;29;20040;-84
2023/11/22 00:28:22;;;;;;;29.60;16.77;;;6.10;99.90;;;;;;4865752;29;20898;-84
2023/11/22 00:30:48;;;;;;;24.57;17.27;;;6.10;99.90;;;;;;4869453;29;20032;-84
2023/11/22 00:33:14;;;;;;;28.00;17.23;;;6.10;99.90;;;;;;4869085;29;20037;-84
2023/11/22 00:35:40;;;;;;;28.47;16.90;;;6.10;99.90;;;;;;4867714;29;20057;-84
2023/11/22 00:38:06;;;;;;;29.73;18.97;;;6.10;99.90;;;;;;4867941;29;20132;-84
2023/11/22 00:40:31;;;;;;;28.20;18.03;;;6.10;99.90;;;;;;4869163;29;20121;-84
2023/11/22 00:42:57;;;;;;;26.87;17.63;;;6.20;99.90;;;;;;4869224;29;20025;-84
2023/11/22 00:45:24;;;;;;;28.67;19.30;;;6.20;99.90;;;;;;4867626;29;20823;-84
2023/11/22 00:47:52;;;;;;;30.33;18.97;;;6.20;99.90;;;;;;4868310;29;20070;-84
2023/11/22 00:50:21;;;;;;;31.33;19.07;;;6.20;99.90;;;;;;4871334;29;20052;-84
2023/11/22 00:52:48;;;;;;;31.77;19.30;;;6.20;99.90;;;;;;4869115;29;20539;-83
2023/11/22 00:55:13;;;;;;;30.47;18.07;;;6.10;99.90;;;;;;4869179;29;20626;-84
2023/11/22 00:57:39;;;;;;;35.57;19.67;;;6.10;99.90;;;;;;4870858;29;20040;-84
2023/11/22 01:00:08;;;;;;;28.20;18.53;;;6.10;99.90;;;;;;4868840;29;20168;-84
2023/11/22 01:02:34;;;;;;;28.53;18.63;;;6.10;99.90;;;;;;4867305;29;20061;-84
2023/11/22 01:05:00;;;;;;;36.90;19.87;;;6.10;99.90;;;;;;4868077;29;20228;-84
2023/11/22 01:07:26;;;;;;;33.83;19.50;;;6.10;99.90;;;;;;4869646;29;20057;-84
2023/11/22 01:09:53;;;;;;;28.57;18.67;;;6.10;99.90;;;;;;4868766;29;20029;-84
2023/11/22 01:12:19;;;;;;;36.40;20.00;;;6.10;99.90;;;;;;4870167;29;20033;-84
2023/11/22 01:14:46;;;;;;;30.07;19.03;;;6.10;99.90;;;;;;4870155;29;20033;-84
2023/11/22 01:17:11;;;;;;;41.37;20.80;;;6.10;99.90;;;;;;4870775;29;20033;-84
2023/11/22 01:19:37;;;;;;;34.50;18.77;;;6.10;99.90;;;;;;4871439;29;20041;-84
2023/11/22 01:22:03;;;;;;;31.50;19.43;;;6.20;99.90;;;;;;4871551;29;20033;-84
2023/11/22 01:24:29;;;;;;;32.00;18.93;;;6.20;99.90;;;;;;4872755;29;20042;-83
2023/11/22 01:26:55;;;;;;;34.27;20.03;;;6.20;99.90;;;;;;4871528;29;20040;-84
2023/11/22 01:29:21;;;;;;;32.33;20.40;;;6.20;99.90;;;;;;4873634;29;21426;-83
2023/11/22 01:31:47;;;;;;;29.60;19.07;;;6.20;99.90;;;;;;4874248;29;20037;-84
2023/11/22 01:34:13;;;;;;;27.13;18.43;;;6.20;99.90;;;;;;4874641;29;20021;-84
2023/11/22 01:36:43;;;;;;;32.60;20.40;;;6.10;99.90;;;;;;4876073;29;20048;-84
2023/11/22 01:39:10;;;;;;;33.93;21.30;;;6.20;99.90;;;;;;4880248;29;20104;-83
2023/11/22 01:41:35;;;;;;;32.23;20.13;;;6.10;99.90;;;;;;4886751;29;20037;-83
2023/11/22 01:44:02;;;;;;;34.10;19.83;;;6.10;99.90;;;;;;4884270;29;20133;-84
2023/11/22 01:46:28;;;;;;;33.10;20.23;;;6.10;99.90;;;;;;4870946;29;20041;-84
2023/11/22 01:48:54;;;;;;;33.67;19.60;;;6.10;99.90;;;;;;4871198;29;20096;-84
2023/11/22 01:51:21;;;;;;;30.40;20.27;;;6.10;99.90;;;;;;4871454;29;20497;-84
2023/11/22 01:53:48;;;;;;;34.10;21.37;;;6.10;99.90;;;;;;4870705;29;20576;-84
2023/11/22 01:56:16;;;;;;;29.83;19.07;;;6.10;99.90;;;;;;4871214;29;20033;-84
2023/11/22 01:58:42;;;;;;;33.07;19.83;;;6.10;99.90;;;;;;4869823;29;20109;-84
2023/11/22 02:01:09;;;;;;;28.20;18.73;;;6.10;99.90;;;;;;4871505;29;20025;-84
2023/11/22 02:03:34;;;;;;;33.17;19.70;;;6.10;99.90;;;;;;4870243;29;20835;-84
2023/11/22 02:06:00;;;;;;;16.67;11.10;;;6.10;99.90;;;;;;4875535;29;20052;-84
2023/11/22 02:08:28;;;;;;;12.10;8.10;;;6.10;99.90;;;;;;4872814;29;20089;-83
2023/11/22 02:11:03;;;;;;;9.97;8.10;;;6.10;99.90;;;;;;4875495;29;20025;-84
2023/11/22 02:13:29;;;;;;;11.10;8.88;;;6.00;99.90;;;;;;4872760;29;20052;-84
2023/11/22 02:15:56;;;;;;;9.87;8.70;;;5.90;99.90;;;;;;4873816;29;20041;-84
2023/11/22 02:18:23;;;;;;;11.63;9.43;;;5.80;99.90;;;;;;4875035;29;20033;-83
2023/11/22 02:20:49;;;;;;;10.23;9.13;;;5.70;99.90;;;;;;4873202;29;20037;-83
2023/11/22 02:23:15;;;;;;;9.37;7.93;;;5.60;99.90;;;;;;4873517;29;20125;-84
2023/11/22 02:25:40;;;;;;;12.47;8.30;;;5.40;99.90;;;;;;4873228;29;20541;-84
2023/11/22 02:28:08;;;;;;;10.73;7.97;;;5.20;99.90;;;;;;4874346;29;20677;-84
2023/11/22 02:30:34;;;;;;;6.80;5.53;;;5.10;99.90;;;;;;4874070;29;20085;-84
2023/11/22 02:32:59;;;;;;;7.00;5.77;;;4.90;99.90;;;;;;4871881;29;20720;-84
2023/11/22 02:35:26;;;;;;;7.63;5.80;;;4.70;99.90;;;;;;4872331;29;20037;-84
2023/11/22 02:37:52;;;;;;;9.47;6.33;;;4.60;99.90;;;;;;4873134;29;20243;-84
2023/11/22 02:40:19;;;;;;;6.47;4.97;;;4.40;99.90;;;;;;4872099;29;20029;-84
2023/11/22 02:42:49;;;;;;;8.23;4.63;;;4.30;99.90;;;;;;4874487;29;20062;-84
2023/11/22 02:45:17;;;;;;;5.40;4.27;;;4.20;99.90;;;;;;4876230;29;20029;-83
2023/11/22 02:47:44;;;;;;;6.33;4.43;;;4.00;99.90;;;;;;4879200;29;20115;-84
2023/11/22 02:50:11;;;;;;;8.67;4.90;;;4.00;99.90;;;;;;4870735;29;20564;-84
2023/11/22 02:52:37;;;;;;;7.53;4.60;;;3.90;99.90;;;;;;4871485;29;20033;-84
2023/11/22 02:55:04;;;;;;;6.30;4.20;;;3.80;99.90;;;;;;4870958;29;20520;-84
2023/11/22 02:57:31;;;;;;;6.27;4.60;;;3.80;99.90;;;;;;4869877;29;20047;-84
2023/11/22 02:59:57;;;;;;;6.00;4.37;;;3.70;99.90;;;;;;4868354;29;20067;-84
2023/11/22 03:02:22;;;;;;;6.30;4.03;;;3.70;99.90;;;;;;4873719;29;20068;-84
2023/11/22 03:04:48;;;;;;;6.23;4.00;;;3.60;99.90;;;;;;4874485;29;20039;-83
2023/11/22 03:07:14;;;;;;;4.90;3.80;;;3.60;99.90;;;;;;4873594;29;20120;-84
2023/11/22 03:09:41;;;;;;;5.30;3.87;;;3.50;99.90;;;;;;4871503;29;20037;-84
2023/11/22 03:12:08;;;;;;;5.53;4.00;;;3.40;99.90;;;;;;4871836;29;20072;-84
2023/11/22 03:14:35;;;;;;;6.63;3.93;;;3.50;99.90;;;;;;4872367;29;20559;-84
2023/11/22 03:17:00;;;;;;;5.70;4.00;;;3.50;99.90;;;;;;4869757;29;20132;-84
2023/11/22 03:19:26;;;;;;;7.40;4.30;;;3.50;99.90;;;;;;4871157;29;20021;-83
2023/11/22 03:21:51;;;;;;;5.67;3.93;;;3.50;99.90;;;;;;4872205;29;20116;-83
2023/11/22 03:24:17;;;;;;;5.43;4.47;;;3.40;99.90;;;;;;4872426;29;20900;-83
2023/11/22 03:26:43;;;;;;;7.40;4.40;;;3.40;99.90;;;;;;4870768;29;20033;-83
2023/11/22 03:29:08;;;;;;;5.63;4.10;;;3.40;99.90;;;;;;4871596;29;20033;-83
2023/11/22 03:31:34;;;;;;;6.37;4.77;;;3.40;99.90;;;;;;4871690;29;20122;-83
2023/11/22 03:33:59;;;;;;;7.83;5.77;;;3.40;99.90;;;;;;4871553;29;20032;-83
2023/11/22 03:36:25;;;;;;;8.57;5.20;;;3.40;99.90;;;;;;4870413;29;20123;-83
2023/11/22 03:38:51;;;;;;;9.20;5.57;;;3.40;99.90;;;;;;4871520;29;20053;-83
2023/11/22 03:41:17;;;;;;;8.27;5.87;;;3.40;99.90;;;;;;4872732;29;20021;-83
2023/11/22 03:43:43;;;;;;;7.90;6.00;;;3.40;99.90;;;;;;4871840;29;20457;-83
2023/11/22 03:46:11;;;;;;;9.07;6.10;;;3.40;99.90;;;;;;4870294;29;20085;-83
2023/11/22 03:48:36;;;;;;;9.60;6.30;;;3.50;99.90;;;;;;4871130;29;20055;-83
2023/11/22 03:51:02;;;;;;;9.67;6.30;;;3.50;99.90;;;;;;4870351;29;20093;-83
2023/11/22 03:53:28;;;;;;;9.10;6.50;;;3.50;99.90;;;;;;4867977;29;20029;-83
2023/11/22 03:55:53;;;;;;;9.13;6.50;;;3.50;99.90;;;;;;4870514;29;20029;-83
2023/11/22 03:58:19;;;;;;;9.27;6.50;;;3.50;99.90;;;;;;4871691;29;20073;-83
2023/11/22 04:00:44;;;;;;;8.83;5.43;;;3.50;99.90;;;;;;4872297;29;20056;-83
2023/11/22 04:03:10;;;;;;;7.50;5.67;;;3.60;99.90;;;;;;4872055;29;20052;-83
2023/11/22 04:05:35;;;;;;;4.93;3.73;;;3.50;99.90;;;;;;4875625;29;20047;-83
2023/11/22 04:08:01;;;;;;;5.30;4.07;;;3.50;99.90;;;;;;4876193;29;20066;-83
2023/11/22 04:10:26;;;;;;;4.70;3.70;;;3.50;99.90;;;;;;4877064;29;21474;-83
2023/11/22 04:12:52;;;;;;;4.90;3.90;;;3.40;99.90;;;;;;4875731;29;20424;-83
2023/11/22 04:15:19;;;;;;;4.63;3.60;;;3.30;99.90;;;;;;4880933;29;20029;-83
2023/11/22 04:17:45;;;;;;;4.77;3.57;;;3.30;99.90;;;;;;4879834;29;20056;-83
2023/11/22 04:20:14;;;;;;;5.47;4.00;;;3.30;99.90;;;;;;4878173;29;20037;-83
2023/11/22 04:22:41;;;;;;;7.03;4.50;;;3.30;99.90;;;;;;4880962;29;20037;-83
2023/11/22 04:25:08;;;;;;;4.90;3.80;;;3.20;99.90;;;;;;4874219;29;20088;-84
2023/11/22 04:27:34;;;;;;;5.33;3.57;;;3.20;99.90;;;;;;4874362;29;20053;-83
2023/11/22 04:30:00;;;;;;;5.17;3.87;;;3.20;99.90;;;;;;4877907;29;20136;-83
2023/11/22 04:32:25;;;;;;;5.50;3.87;;;3.20;99.90;;;;;;4878798;29;20188;-83
2023/11/22 04:34:51;;;;;;;5.50;4.07;;;3.20;99.90;;;;;;4883505;29;20056;-83
2023/11/22 04:37:17;;;;;;;6.47;3.90;;;3.20;99.90;;;;;;4890903;29;20024;-82
2023/11/22 04:39:42;;;;;;;5.30;4.20;;;3.20;99.90;;;;;;4891426;29;20025;-83
2023/11/22 04:42:09;;;;;;;5.67;4.07;;;3.20;99.90;;;;;;4873689;29;20029;-83
2023/11/22 04:44:35;;;;;;;5.00;3.80;;;3.20;99.90;;;;;;4873862;29;20072;-83
2023/11/22 04:47:00;;;;;;;4.73;3.53;;;3.20;99.90;;;;;;4875002;29;20037;-83
2023/11/22 04:49:26;;;;;;;5.17;3.97;;;3.20;99.90;;;;;;4874843;29;20025;-83
2023/11/22 04:51:52;;;;;;;7.43;4.00;;;3.20;99.90;;;;;;4875472;29;20042;-83
2023/11/22 04:54:17;;;;;;;5.13;4.00;;;3.20;99.90;;;;;;4874687;29;20035;-83
2023/11/22 04:56:43;;;;;;;5.60;3.93;;;3.10;99.90;;;;;;4873348;29;20071;-83
2023/11/22 04:59:09;;;;;;;5.17;3.80;;;3.10;99.90;;;;;;4873254;29;20085;-83
2023/11/22 05:01:34;;;;;;;7.63;3.60;;;3.10;99.90;;;;;;4873901;29;20037;-83
2023/11/22 05:04:00;;;;;;;5.37;3.87;;;3.10;99.90;;;;;;4873618;29;20036;-83
2023/11/22 05:06:27;;;;;;;5.67;3.97;;;3.10;99.90;;;;;;4874200;29;20056;-83
2023/11/22 05:08:52;;;;;;;5.20;4.00;;;3.10;99.90;;;;;;4874950;29;20410;-83
2023/11/22 05:11:18;;;;;;;5.30;3.97;;;3.10;99.90;;;;;;4875095;29;20025;-83
2023/11/22 05:13:44;;;;;;;5.53;4.00;;;3.10;99.90;;;;;;4875083;29;20021;-84
2023/11/22 05:16:09;;;;;;;5.83;4.03;;;3.10;99.90;;;;;;4872920;29;20037;-83
2023/11/22 05:18:38;;;;;;;5.30;4.13;;;3.10;99.90;;;;;;4877192;29;20040;-83
2023/11/22 05:21:03;;;;;;;6.17;4.00;;;3.10;99.90;;;;;;4877396;29;20047;-83
2023/11/22 05:23:29;;;;;;;5.13;3.67;;;3.10;99.90;;;;;;4877006;29;20017;-83
2023/11/22 05:25:56;;;;;;;5.80;4.30;;;3.10;99.90;;;;;;4876512;29;20049;-83
2023/11/22 05:28:22;;;;;;;14.23;9.40;;;3.10;99.90;;;;;;4876200;29;20025;-83
2023/11/22 05:30:47;;;;;;;9.47;6.20;;;3.10;99.90;;;;;;4877301;29;20152;-83
2023/11/22 05:33:13;;;;;;;8.33;4.60;;;3.10;99.90;;;;;;4876064;29;20041;-84
2023/11/22 05:35:40;;;;;;;6.03;4.53;;;3.10;99.90;;;;;;4874242;29;20057;-83
2023/11/22 05:38:06;;;;;;;6.60;5.10;;;3.10;99.90;;;;;;4874372;29;20029;-83
2023/11/22 05:40:32;;;;;;;8.07;4.83;;;3.10;99.90;;;;;;4874728;29;20043;-83
2023/11/22 05:42:58;;;;;;;7.60;5.33;;;3.10;99.90;;;;;;4874428;29;20029;-84
2023/11/22 05:45:24;;;;;;;6.37;4.80;;;3.10;99.90;;;;;;4873333;29;21546;-84
2023/11/22 05:47:50;;;;;;;6.70;4.47;;;3.10;99.90;;;;;;4873456;29;20053;-83
2023/11/22 05:50:16;;;;;;;7.33;4.90;;;3.10;99.90;;;;;;4874537;29;20128;-83
2023/11/22 05:52:42;;;;;;;6.90;5.27;;;3.10;99.90;;;;;;4874743;29;20033;-83
2023/11/22 05:55:09;;;;;;;7.33;5.10;;;3.10;99.90;;;;;;4873479;29;20037;-83
2023/11/22 05:57:34;;;;;;;7.30;5.27;;;3.20;99.90;;;;;;4871109;29;20021;-84
2023/11/22 06:00:00;;;;;;;6.53;4.43;;;3.20;99.90;;;;;;4871093;29;20021;-84
2023/11/22 06:02:25;;;;;;;7.17;4.70;;;3.30;99.90;;;;;;4867961;29;20056;-84
2023/11/22 06:04:51;;;;;;;6.33;4.80;;;3.20;99.90;;;;;;4870481;29;20048;-84
2023/11/22 06:07:16;;;;;;;6.93;5.10;;;3.20;99.90;;;;;;4870399;29;20040;-84
2023/11/22 06:09:42;;;;;;;13.50;9.80;;;3.20;99.90;;;;;;4874390;29;20032;-84
2023/11/22 06:12:07;;;;;;;8.10;5.60;;;3.20;99.90;;;;;;4877625;29;20028;-84
2023/11/22 06:14:33;;;;;;;8.07;5.20;;;3.20;99.90;;;;;;4874591;29;20033;-83
2023/11/22 06:16:58;;;;;;;6.57;4.60;;;3.20;99.90;;;;;;4870274;29;20910;-84
2023/11/22 06:19:24;;;;;;;5.53;4.20;;;3.20;99.90;;;;;;4869583;29;20040;-84
2023/11/22 06:21:50;;;;;;;5.03;4.20;;;3.20;99.90;;;;;;4871839;29;20179;-83
2023/11/22 06:24:15;;;;;;;4.93;4.10;;;3.10;99.90;;;;;;4872415;29;20033;-83
2023/11/22 06:26:47;;;;;;;5.97;4.63;;;3.10;99.90;;;;;;4870669;29;20041;-83
2023/11/22 06:29:13;;;;;;;9.00;4.50;;;3.10;99.90;;;;;;4876133;29;20033;-84
2023/11/22 06:31:40;;;;;;;6.60;4.67;;;3.10;99.90;;;;;;4876834;29;20125;-83
2023/11/22 06:34:05;;;;;;;5.93;3.50;;;3.10;99.90;;;;;;4873067;29;20068;-83
2023/11/22 06:36:31;;;;;;;5.43;3.63;;;3.10;99.90;;;;;;4877780;29;20037;-83
2023/11/22 06:38:56;;;;;;;6.27;4.07;;;3.00;99.90;;;;;;4872292;29;20036;-84
2023/11/22 06:41:22;;;;;;;9.23;3.67;;;3.00;99.90;;;;;;4873541;29;20056;-83
2023/11/22 06:43:48;;;;;;;5.57;3.90;;;3.00;99.90;;;;;;4870896;29;20044;-83
2023/11/22 06:46:16;;;;;;;4.53;3.43;;;2.90;99.90;;;;;;4868880;29;20041;-83
2023/11/22 06:48:43;;;;;;;4.47;3.20;;;2.90;99.90;;;;;;4871528;29;20053;-83
2023/11/22 06:51:09;;;;;;;4.50;3.60;;;2.90;99.90;;;;;;4870008;29;20040;-84
2023/11/22 06:53:35;;;;;;;5.00;3.77;;;2.90;99.90;;;;;;4869044;29;20033;-83
2023/11/22 06:56:01;;;;;;;7.67;3.63;;;2.90;99.90;;;;;;4867169;29;20081;-84
2023/11/22 06:58:26;;;;;;;5.10;3.47;;;2.90;99.90;;;;;;4872111;29;20081;-83
2023/11/22 07:00:52;;;;;;;4.80;3.50;;;2.90;99.90;;;;;;4874000;29;20032;-84
2023/11/22 07:03:18;;;;;;;5.30;4.07;;;2.90;99.90;;;;;;4873336;29;20033;-84
2023/11/22 07:05:44;;;;;;;4.93;3.70;;;2.90;99.90;;;;;;4872816;29;20048;-83
2023/11/22 07:08:10;;;;;;;4.23;3.27;;;2.90;99.90;;;;;;4867983;29;20029;-81
2023/11/22 07:10:37;;;;;;;8.83;5.50;;;2.80;99.90;;;;;;4871352;29;20029;-82
2023/11/22 07:13:02;;;;;;;4.20;3.60;;;2.80;99.90;;;;;;4872067;29;20029;-82
2023/11/22 07:15:28;;;;;;;5.37;3.90;;;2.80;99.90;;;;;;4870503;29;20049;-83
2023/11/22 07:17:54;;;;;;;4.90;3.93;;;2.80;99.90;;;;;;4873383;29;20096;-83
2023/11/22 07:20:20;;;;;;;5.03;4.07;;;2.80;99.90;;;;;;4873218;29;20528;-82
2023/11/22 07:22:46;;;;;;;4.67;3.60;;;2.80;99.90;;;;;;4872895;29;20447;-82
2023/11/22 07:25:18;;;;;;;5.20;4.37;;;2.80;99.90;;;;;;4874462;29;20236;-83
2023/11/22 07:27:47;;;;;;;5.47;4.13;;;2.80;99.90;;;;;;4875538;29;20033;-82
2023/11/22 07:30:13;;;;;;;7.30;5.40;;;2.80;99.90;;;;;;4874881;29;20036;-82
2023/11/22 07:32:40;;;;;;;6.47;4.70;;;2.80;99.90;;;;;;4880480;29;20040;-83
2023/11/22 07:35:08;;;;;;;6.67;5.10;;;2.80;99.90;;;;;;4883035;29;20044;-83
2023/11/22 07:37:35;;;;;;;6.43;5.20;;;2.80;99.90;;;;;;4876187;29;20037;-83
2023/11/22 07:40:03;;;;;;;7.63;5.87;;;2.80;99.90;;;;;;4868188;29;20041;-83
2023/11/22 07:42:29;;;;;;;6.83;5.00;;;2.80;99.90;;;;;;4864373;29;20033;-83
2023/11/22 07:44:56;;;;;;;7.77;5.10;;;2.80;99.90;;;;;;4867814;29;20040;-82
2023/11/22 07:47:24;;;;;;;8.13;5.97;;;2.80;99.90;;;;;;4867149;29;20052;-83
2023/11/22 07:49:50;;;;;;;8.20;6.07;;;2.70;99.90;;;;;;4867662;29;20037;-82
2023/11/22 07:52:16;;;;;;;7.70;5.57;;;2.70;99.90;;;;;;4869877;29;20044;-82
2023/11/22 07:54:41;;;;;;;9.27;6.03;;;2.70;99.90;;;;;;4868171;29;20033;-83
2023/11/22 07:57:07;;;;;;;7.70;5.77;;;2.70;99.90;;;;;;4866165;29;20037;-82
2023/11/22 07:59:33;;;;;;;8.23;6.67;;;2.60;99.90;;;;;;4868825;29;20045;-82
2023/11/22 08:02:01;;;;;;;14.47;9.20;;;2.60;99.90;;;;;;4867795;29;20709;-83
2023/11/22 08:04:28;;;;;;;7.50;5.60;;;2.60;99.90;;;;;;4866367;29;20040;-83
2023/11/22 08:06:56;;;;;;;8.23;6.07;;;2.60;99.90;;;;;;4865690;29;20064;-83
2023/11/22 08:09:22;;;;;;;8.33;6.07;;;2.60;99.90;;;;;;4868865;29;20059;-82
2023/11/22 08:11:48;;;;;;;7.97;6.10;;;2.60;99.90;;;;;;4867576;29;20116;-85
2023/11/22 08:14:15;;;;;;;8.33;6.13;;;2.60;99.90;;;;;;4865772;29;20108;-82
2023/11/22 08:16:42;;;;;;;7.47;6.10;;;2.60;99.90;;;;;;4861702;29;20127;-82
2023/11/22 08:19:11;;;;;;;7.70;6.00;;;2.60;99.90;;;;;;4865890;29;20371;-82
2023/11/22 08:21:38;;;;;;;7.00;5.07;;;2.60;99.90;;;;;;4867428;29;20200;-83
2023/11/22 08:24:04;;;;;;;7.53;5.50;;;2.60;99.90;;;;;;4867727;29;20033;-82
2023/11/22 08:26:30;;;;;;;7.80;5.70;;;2.60;99.90;;;;;;4862858;29;20113;-82
2023/11/22 08:28:56;;;;;;;11.80;7.27;;;2.60;99.90;;;;;;4865017;29;20728;-82
2023/11/22 08:31:22;;;;;;;11.03;7.00;;;2.50;99.90;;;;;;4865762;29;20065;-82
2023/11/22 08:33:49;;;;;;;7.57;5.43;;;2.50;99.90;;;;;;4865136;29;20571;-81
2023/11/22 08:36:14;;;;;;;9.57;6.27;;;2.50;99.90;;;;;;4863577;29;20457;-82
2023/11/22 08:38:41;;;;;;;9.47;5.77;;;2.50;99.90;;;;;;4863806;29;20026;-82
2023/11/22 08:41:07;;;;;;;7.47;5.40;;;2.40;99.90;;;;;;4869783;29;20032;-82
2023/11/22 08:43:33;;;;;;;6.43;5.40;;;2.40;99.90;;;;;;4866676;29;20167;-82
2023/11/22 08:45:59;;;;;;;7.47;5.70;;;2.40;99.90;;;;;;4870705;29;20052;-82
2023/11/22 08:48:25;;;;;;;7.43;5.77;;;2.40;99.90;;;;;;4872055;29;20105;-82
2023/11/22 08:50:53;;;;;;;9.50;5.63;;;2.30;99.90;;;;;;4866848;29;20148;-82
2023/11/22 08:53:19;;;;;;;7.83;5.03;;;2.30;99.90;;;;;;4863828;29;20088;-82
2023/11/22 08:55:45;;;;;;;8.13;5.80;;;2.30;99.90;;;;;;4863867;29;20044;-83
2023/11/22 08:58:11;;;;;;;7.60;5.53;;;2.30;99.90;;;;;;4866378;29;20041;-83
2023/11/22 09:00:36;;;;;;;8.73;5.43;;;2.30;99.90;;;;;;4865401;29;20159;-83
2023/11/22 09:03:03;;;;;;;7.53;5.30;;;2.40;99.90;;;;;;4864478;29;20072;-82
2023/11/22 09:05:29;;;;;;;7.57;5.10;;;2.40;99.90;;;;;;4864261;29;20115;-82
2023/11/22 09:07:55;;;;;;;7.43;5.67;;;2.40;99.90;;;;;;4866030;29;20029;-82
2023/11/22 09:10:21;;;;;;;6.83;5.10;;;2.40;99.90;;;;;;4867345;29;20573;-82
2023/11/22 09:12:47;;;;;;;8.20;5.40;;;2.40;99.90;;;;;;4867911;29;20037;-82
2023/11/22 09:15:16;;;;;;;6.10;5.30;;;2.50;99.90;;;;;;4867300;29;20037;-82
2023/11/22 09:17:48;;;;;;;5.97;4.60;;;2.50;99.90;;;;;;4865082;29;20033;-82
2023/11/22 09:20:18;;;;;;;9.10;6.30;;;2.50;99.90;;;;;;4865236;29;20037;-82
2023/11/22 09:22:52;;;;;;;14.37;7.03;;;2.50;99.90;;;;;;4867667;29;20048;-81
2023/11/22 09:25:20;;;;;;;7.57;5.13;;;2.50;99.90;;;;;;4867415;29;20044;-82
2023/11/22 09:27:47;;;;;;;16.57;7.90;;;2.50;99.90;;;;;;4868508;29;20044;-82
2023/11/22 09:30:32;;;;;;;8.97;5.90;;;2.50;99.90;;;;;;4867450;29;20037;-82
2023/11/22 09:33:00;;;;;;;7.57;5.00;;;2.50;99.90;;;;;;4869555;29;20048;-82
2023/11/22 09:35:29;;;;;;;5.87;4.73;;;2.60;99.90;;;;;;4867340;29;20266;-82
2023/11/22 09:38:01;;;;;;;6.43;4.53;;;2.60;99.90;;;;;;4871454;29;20029;-81
2023/11/22 09:40:28;;;;;;;5.90;4.63;;;2.70;99.90;;;;;;4873786;29;20033;-82
2023/11/22 09:42:58;;;;;;;6.40;4.93;;;2.70;99.90;;;;;;4876504;29;20077;-81
2023/11/22 09:45:25;;;;;;;9.53;4.20;;;2.80;99.90;;;;;;4888813;29;20036;-81
2023/11/22 09:47:51;;;;;;;5.77;4.53;;;2.80;99.90;;;;;;4890530;29;20077;-81
2023/11/22 09:50:24;;;;;;;7.27;5.00;;;2.80;99.90;;;;;;4868540;29;20033;-81
2023/11/22 09:52:55;;;;;;;7.13;4.83;;;2.80;99.90;;;;;;4866573;29;20044;-82
2023/11/22 09:55:26;;;;;;;7.40;5.30;;;2.80;99.90;;;;;;4863385;29;20033;-82
2023/11/22 09:57:53;;;;;;;6.37;5.23;;;2.90;99.90;;;;;;4865493;29;20789;-81
2023/11/22 10:00:21;;;;;;;7.30;5.37;;;2.90;99.90;;;;;;4866825;29;20033;-82
2023/11/22 10:02:48;;;;;;;5.80;4.57;;;2.90;99.90;;;;;;4865371;29;20037;-83
2023/11/22 10:05:14;;;;;;;7.30;4.93;;;3.00;99.90;;;;;;4867468;29;20104;-82
2023/11/22 10:07:39;;;;;;;7.63;5.10;;;3.00;99.90;;;;;;4867430;29;20140;-82
2023/11/22 10:10:06;;;;;;;5.80;4.93;;;3.00;99.90;;;;;;4863871;29;20039;-82
2023/11/22 10:12:36;;;;;;;7.17;4.63;;;3.00;99.90;;;;;;4864378;29;20033;-82
2023/11/22 10:15:12;;;;;;;7.57;5.50;;;3.00;99.90;;;;;;4863414;29;20160;-83
2023/11/22 10:17:38;;;;;;;28.03;15.87;;;3.10;99.90;;;;;;4861030;29;20048;-82
2023/11/22 10:20:06;;;;;;;7.20;5.23;;;3.10;99.90;;;;;;4861561;29;20029;-83
2023/11/22 10:22:45;;;;;;;12.33;7.00;;;3.10;99.90;;;;;;4860748;29;20044;-82
2023/11/22 10:25:12;;;;;;;10.53;5.43;;;3.20;99.90;;;;;;4860917;29;21016;-82
2023/11/22 10:27:39;;;;;;;137.33;50.77;;;3.20;99.90;;;;;;4860965;29;20132;-82
2023/11/22 10:30:05;;;;;;;8.00;5.00;;;3.20;99.90;;;;;;4859440;29;20148;-83
2023/11/22 10:32:31;;;;;;;16.67;8.47;;;3.20;99.90;;;;;;4859565;29;20036;-82
2023/11/22 10:34:56;;;;;;;8.80;5.87;;;3.20;99.90;;;;;;4860652;29;20033;-82
2023/11/22 10:37:24;;;;;;;9.50;5.83;;;3.20;99.90;;;;;;4859508;29;20033;-82
2023/11/22 10:39:53;;;;;;;7.27;5.60;;;3.10;99.90;;;;;;4861829;29;20061;-82
2023/11/22 10:42:21;;;;;;;6.97;5.77;;;3.10;99.90;;;;;;4857599;29;20040;-76
2023/11/22 10:44:48;;;;;;;6.60;5.23;;;3.20;99.90;;;;;;4858944;29;20033;-81
2023/11/22 10:47:17;;;;;;;5.50;4.50;;;3.20;99.90;;;;;;4854673;29;20041;-81
2023/11/22 10:49:43;;;;;;;5.57;4.47;;;3.30;99.90;;;;;;4853612;29;20060;-81
2023/11/22 10:52:12;;;;;;;5.27;4.13;;;3.30;99.90;;;;;;4857988;29;20126;-81
2023/11/22 10:54:45;;;;;;;5.30;4.13;;;3.40;99.90;;;;;;4861269;29;20045;-81
2023/11/22 10:57:13;;;;;;;6.00;4.90;;;3.40;99.90;;;;;;4859753;29;20037;-81
2023/11/22 10:59:43;;;;;;;5.23;4.03;;;3.50;99.90;;;;;;4859271;29;20044;-81
2023/11/22 11:02:15;;;;;;;6.40;4.20;;;3.40;99.90;;;;;;4857704;29;20044;-81
2023/11/22 11:04:53;;;;;;;5.93;4.63;;;3.50;99.90;;;;;;4859384;29;20045;-81
2023/11/22 11:07:22;;;;;;;8.60;4.53;;;3.50;99.90;;;;;;4855580;29;20042;-81
2023/11/22 11:09:50;;;;;;;7.53;5.40;;;3.50;99.90;;;;;;4856328;29;20032;-81
2023/11/22 11:12:17;;;;;;;7.80;5.27;;;3.50;99.90;;;;;;4855037;29;20353;-88
2023/11/22 11:14:46;;;;;;;6.43;4.73;;;3.50;99.90;;;;;;4856655;29;20793;-88
2023/11/22 11:17:13;;;;;;;6.23;4.47;;;3.50;99.90;;;;;;4851399;29;20033;-85
2023/11/22 11:19:38;;;;;;;6.70;4.90;;;3.50;99.90;;;;;;4859791;29;20056;-82
2023/11/22 11:22:10;;;;;;;5.77;4.20;;;3.60;99.90;;;;;;4869613;29;20025;-82
2023/11/22 11:24:40;;;;;;;5.93;4.40;;;3.60;99.90;;;;;;4872756;29;20041;-82
2023/11/22 11:27:06;;;;;;;5.80;4.67;;;3.50;99.90;;;;;;4870227;29;20180;-82
2023/11/22 11:29:42;;;;;;;5.17;4.17;;;3.50;99.90;;;;;;4871513;29;20040;-82
2023/11/22 11:32:15;;;;;;;6.60;4.53;;;3.50;99.90;;;;;;4871794;29;20031;-82
2023/11/22 11:34:50;;;;;;;6.13;4.93;;;3.60;99.90;;;;;;4871458;29;20032;-82
2023/11/22 11:37:19;;;;;;;6.05;4.88;;;3.60;99.90;;;;;;4869327;29;20120;-82
2023/11/22 11:39:45;;;;;;;6.60;4.60;;;3.60;99.90;;;;;;4870161;29;20481;-82
2023/11/22 11:42:13;;;;;;;5.67;4.50;;;3.60;99.90;;;;;;4870768;29;20064;-81
2023/11/22 11:45:11;;;;;;;5.73;4.73;;;3.60;99.90;;;;;;4869052;29;20494;-82
2023/11/22 11:47:36;;;;;;;5.60;4.17;;;3.60;99.90;;;;;;4870410;29;20053;-81
2023/11/22 11:50:02;;;;;;;6.77;4.27;;;3.70;99.90;;;;;;4870856;29;20427;-82
2023/11/22 11:52:31;;;;;;;5.77;4.23;;;3.70;99.90;;;;;;4871119;29;20116;-81
2023/11/22 11:54:57;;;;;;;6.33;4.60;;;3.60;99.90;;;;;;4868432;29;20068;-82
2023/11/22 11:57:23;;;;;;;6.33;4.50;;;3.70;99.90;;;;;;4868527;29;20036;-82
2023/11/22 11:59:49;;;;;;;6.67;4.00;;;3.60;99.90;;;;;;4870633;29;20044;-82
2023/11/22 12:02:16;;;;;;;10.57;6.90;;;3.60;99.90;;;;;;4868920;29;20044;-82
2023/11/22 12:04:43;;;;;;;8.17;5.73;;;3.60;99.90;;;;;;4867969;29;20036;-81
2023/11/22 12:07:11;;;;;;;5.10;4.07;;;3.60;99.90;;;;;;4867885;29;20458;-81
2023/11/22 12:09:37;;;;;;;5.13;4.47;;;3.50;99.90;;;;;;4870093;29;20060;-82
2023/11/22 12:12:03;;;;;;;6.40;5.00;;;3.50;99.90;;;;;;4867617;29;20764;-81
2023/11/22 12:14:30;;;;;;;5.17;3.83;;;3.60;99.90;;;;;;4867685;29;20064;-82
2023/11/22 12:16:59;;;;;;;5.63;4.10;;;3.50;99.90;;;;;;4868079;29;20044;-82
2023/11/22 12:19:33;;;;;;;10.13;6.83;;;3.50;99.90;;;;;;4868137;29;20132;-82
2023/11/22 12:21:59;;;;;;;6.27;4.37;;;3.50;99.90;;;;;;4867454;29;20025;-82
2023/11/22 12:24:24;;;;;;;4.67;3.73;;;3.50;99.90;;;;;;4868939;29;20045;-81
2023/11/22 12:26:50;;;;;;;4.83;3.90;;;3.40;99.90;;;;;;4868451;29;20068;-81
2023/11/22 12:29:18;;;;;;;6.40;4.43;;;3.40;99.90;;;;;;4871933;29;20037;-81
2023/11/22 12:31:56;;;;;;;5.00;3.80;;;3.40;99.90;;;;;;4873180;29;20044;-82
2023/11/22 12:34:22;;;;;;;5.70;4.23;;;3.30;99.90;;;;;;4875271;29;20071;-82
2023/11/22 12:36:48;;;;;;;6.97;4.60;;;3.30;99.90;;;;;;4876577;29;20400;-81
2023/11/22 12:39:17;;;;;;;5.60;4.50;;;3.30;99.90;;;;;;4880014;29;20024;-82
2023/11/22 12:41:45;;;;;;;4.73;4.10;;;3.30;99.90;;;;;;4894783;29;20037;-81
2023/11/22 12:44:10;;;;;;;7.23;5.07;;;3.30;99.90;;;;;;4893816;29;20029;-81
2023/11/22 12:46:56;;;;;;;6.50;4.40;;;3.20;99.90;;;;;;4880274;29;20149;-81
2023/11/22 12:49:25;;;;;;;5.03;4.20;;;3.30;99.90;;;;;;4875484;29;20041;-80
2023/11/22 12:51:56;;;;;;;6.07;4.23;;;3.30;99.90;;;;;;4876078;29;20052;-80